createdAt,value
2023-12-22T00:01:44.171Z,13.30
2023-12-22T00:04:17.281Z,10.40
2023-12-22T00:06:45.986Z,14.70
2023-12-22T00:09:13.834Z,10.80
2023-12-22T00:11:43.716Z,10.80
2023-12-22T00:14:11.648Z,10.40
2023-12-22T00:16:39.889Z,10.70
2023-12-22T00:19:07.977Z,9.30
2023-12-22T00:21:36.191Z,15.00
2023-12-22T00:24:03.973Z,12.40
2023-12-22T00:26:32.356Z,9.70
2023-12-22T00:29:00.231Z,11.00
2023-12-22T00:31:28.073Z,6.90
2023-12-22T00:33:55.949Z,9.50
2023-12-22T00:36:25.701Z,11.60
2023-12-22T00:38:53.584Z,16.30
2023-12-22T00:41:21.527Z,16.00
2023-12-22T00:43:49.428Z,10.80
2023-12-22T00:46:17.262Z,10.90
2023-12-22T00:48:45.074Z,9.20
2023-12-22T00:51:12.954Z,9.30
2023-12-22T00:53:40.751Z,11.90
2023-12-22T00:56:08.795Z,11.60
2023-12-22T00:58:40.136Z,9.80
2023-12-22T01:01:08.957Z,8.60
2023-12-22T01:03:37.099Z,8.30
2023-12-22T01:06:05.328Z,5.00
2023-12-22T01:08:33.352Z,7.70
2023-12-22T01:11:01.325Z,8.10
2023-12-22T01:13:29.166Z,7.10
2023-12-22T01:15:57.039Z,12.50
2023-12-22T01:18:26.509Z,11.80
2023-12-22T01:20:54.398Z,7.90
2023-12-22T01:23:22.261Z,11.50
2023-12-22T01:25:50.261Z,11.10
2023-12-22T01:28:18.093Z,7.50
2023-12-22T01:30:45.877Z,9.50
2023-12-22T01:33:13.782Z,8.30
2023-12-22T01:35:41.939Z,11.20
2023-12-22T01:38:09.740Z,11.10
2023-12-22T01:40:37.780Z,8.80
2023-12-22T01:43:05.671Z,10.30
2023-12-22T01:45:33.631Z,12.60
2023-12-22T01:48:02.046Z,8.30
2023-12-22T01:50:30.160Z,8.10
2023-12-22T01:52:58.472Z,12.90
2023-12-22T01:55:26.387Z,13.80
2023-12-22T01:57:54.344Z,17.50
2023-12-22T02:00:23.041Z,11.80
2023-12-22T02:02:50.977Z,12.90
2023-12-22T02:05:19.340Z,8.50
2023-12-22T02:07:47.966Z,11.80
2023-12-22T02:10:16.350Z,14.50
2023-12-22T02:12:44.414Z,13.80
2023-12-22T02:15:12.353Z,12.40
2023-12-22T02:17:49.514Z,9.20
2023-12-22T02:20:17.875Z,10.10
2023-12-22T02:22:45.940Z,11.90
2023-12-22T02:25:13.840Z,18.00
2023-12-22T02:27:45.932Z,16.80
2023-12-22T02:30:22.856Z,12.50
2023-12-22T02:32:52.429Z,14.90
2023-12-22T02:35:25.256Z,16.30
2023-12-22T02:37:54.151Z,11.40
2023-12-22T02:40:22.598Z,14.90
2023-12-22T02:42:50.867Z,15.90
2023-12-22T02:45:19.412Z,12.40
2023-12-22T02:47:48.138Z,14.30
2023-12-22T02:50:17.350Z,16.60
2023-12-22T02:52:45.312Z,12.80
2023-12-22T02:55:13.697Z,19.40
2023-12-22T02:57:41.713Z,11.60
2023-12-22T03:00:09.930Z,17.90
2023-12-22T03:02:38.310Z,21.00
2023-12-22T03:05:06.473Z,15.30
2023-12-22T03:07:34.449Z,15.80
2023-12-22T03:10:02.578Z,19.30
2023-12-22T03:12:31.027Z,15.00
2023-12-22T03:14:59.045Z,15.20
2023-12-22T03:17:27.158Z,17.30
2023-12-22T03:19:55.178Z,13.00
2023-12-22T03:22:23.140Z,14.00
2023-12-22T03:24:51.143Z,11.20
2023-12-22T03:27:19.427Z,8.20
2023-12-22T03:29:47.302Z,10.20
2023-12-22T03:32:15.089Z,12.20
2023-12-22T03:34:43.219Z,18.80
2023-12-22T03:37:11.162Z,16.80
2023-12-22T03:39:38.954Z,16.70
2023-12-22T03:42:06.755Z,12.50
2023-12-22T03:44:34.723Z,12.10
2023-12-22T03:47:02.688Z,25.70
2023-12-22T03:49:30.893Z,12.30
2023-12-22T03:51:58.872Z,16.00
2023-12-22T03:54:26.965Z,12.30
2023-12-22T03:56:54.947Z,10.60
2023-12-22T03:59:22.940Z,12.90
2023-12-22T04:01:56.480Z,12.40
2023-12-22T04:04:24.586Z,13.00
2023-12-22T04:06:52.540Z,10.30
2023-12-22T04:09:20.716Z,10.60
2023-12-22T04:11:48.985Z,11.20
2023-12-22T04:14:17.848Z,9.90
2023-12-22T04:16:45.969Z,9.40
2023-12-22T04:19:14.096Z,10.80
2023-12-22T04:21:42.140Z,12.40
2023-12-22T04:24:10.323Z,9.30
2023-12-22T04:26:38.340Z,8.80
2023-12-22T04:29:06.256Z,11.20
2023-12-22T04:31:34.368Z,10.00
2023-12-22T04:34:02.639Z,9.20
2023-12-22T04:36:30.820Z,10.30
2023-12-22T04:38:58.697Z,12.50
2023-12-22T04:41:26.662Z,10.10
2023-12-22T04:43:54.884Z,12.20
2023-12-22T04:46:22.850Z,9.60
2023-12-22T04:48:50.898Z,11.20
2023-12-22T04:51:18.869Z,10.70
2023-12-22T04:53:46.710Z,12.50
2023-12-22T04:56:14.603Z,13.60
2023-12-22T04:58:42.645Z,13.80
2023-12-22T05:01:10.693Z,13.70
2023-12-22T05:03:38.785Z,13.40
2023-12-22T05:06:06.833Z,8.60
2023-12-22T05:08:35.584Z,10.70
2023-12-22T05:11:04.297Z,11.80
2023-12-22T05:13:32.172Z,12.60
2023-12-22T05:16:00.009Z,11.10
2023-12-22T05:18:28.014Z,12.60
2023-12-22T05:20:56.512Z,9.00
2023-12-22T05:23:27.236Z,12.70
2023-12-22T05:25:55.163Z,12.60
2023-12-22T05:28:23.091Z,11.40
2023-12-22T05:30:51.223Z,11.10
2023-12-22T05:33:19.067Z,10.90
2023-12-22T05:35:46.961Z,16.20
2023-12-22T05:38:14.850Z,10.30
2023-12-22T05:40:42.774Z,11.80
2023-12-22T05:43:10.867Z,9.50
2023-12-22T05:45:38.686Z,10.70
2023-12-22T05:48:07.002Z,14.80
2023-12-22T05:50:34.891Z,10.10
2023-12-22T05:53:02.798Z,8.10
2023-12-22T05:55:30.672Z,9.70
2023-12-22T05:57:58.688Z,11.60
2023-12-22T06:00:27.494Z,11.70
2023-12-22T06:02:55.375Z,10.80
2023-12-22T06:05:23.568Z,8.50
2023-12-22T06:07:51.707Z,5.80
2023-12-22T06:10:20.026Z,11.90
2023-12-22T06:12:47.946Z,14.50
2023-12-22T06:15:15.800Z,10.80
2023-12-22T06:17:43.734Z,10.90
2023-12-22T06:20:13.274Z,9.40
2023-12-22T06:22:41.548Z,7.70
2023-12-22T06:25:10.686Z,9.70
2023-12-22T06:27:38.999Z,11.40
2023-12-22T06:30:07.896Z,10.80
2023-12-22T06:32:36.409Z,8.40
2023-12-22T06:35:04.542Z,11.80
2023-12-22T06:37:32.602Z,8.40
2023-12-22T06:40:00.508Z,6.90
2023-12-22T06:42:28.784Z,6.90
2023-12-22T06:44:56.652Z,8.00
2023-12-22T06:47:24.572Z,9.80
2023-12-22T06:49:54.907Z,7.40
2023-12-22T06:52:22.865Z,9.10
2023-12-22T06:54:50.869Z,6.50
2023-12-22T06:57:20.061Z,9.70
2023-12-22T06:59:51.013Z,8.90
2023-12-22T07:02:22.709Z,10.60
2023-12-22T07:05:24.990Z,8.90
2023-12-22T07:07:53.388Z,8.00
2023-12-22T07:10:21.416Z,6.80
2023-12-22T07:12:49.455Z,12.50
2023-12-22T07:15:19.002Z,6.30
2023-12-22T07:17:47.283Z,7.80
2023-12-22T07:20:15.383Z,4.80
2023-12-22T07:22:45.819Z,7.00
2023-12-22T07:25:14.966Z,8.20
2023-12-22T07:27:43.399Z,5.80
2023-12-22T07:30:12.990Z,8.30
2023-12-22T07:32:43.707Z,5.70
2023-12-22T07:35:11.784Z,4.70
2023-12-22T07:37:40.327Z,3.50
2023-12-22T07:40:08.827Z,4.00
2023-12-22T07:42:37.621Z,3.90
2023-12-22T07:45:06.089Z,4.80
2023-12-22T07:47:34.661Z,5.10
2023-12-22T07:50:04.397Z,4.00
2023-12-22T07:52:32.614Z,4.20
2023-12-22T07:55:00.434Z,3.40
2023-12-22T07:57:29.297Z,6.70
2023-12-22T07:59:57.358Z,3.00
2023-12-22T08:02:25.208Z,1.80
2023-12-22T08:04:52.998Z,2.40
2023-12-22T08:07:20.922Z,5.50
2023-12-22T08:09:48.829Z,3.60
2023-12-22T08:12:16.669Z,3.20
2023-12-22T08:14:44.536Z,3.50
2023-12-22T08:17:14.502Z,2.20
2023-12-22T08:19:47.258Z,1.90
2023-12-22T08:22:17.739Z,2.80
2023-12-22T08:24:46.440Z,2.70
2023-12-22T08:27:14.287Z,2.10
2023-12-22T08:29:42.195Z,4.00
2023-12-22T08:32:10.673Z,2.00
2023-12-22T08:34:38.665Z,3.40
2023-12-22T08:37:06.573Z,4.70
2023-12-22T08:39:34.726Z,5.90
2023-12-22T08:42:03.266Z,3.80
2023-12-22T08:44:31.342Z,5.20
2023-12-22T08:47:02.496Z,3.70
2023-12-22T08:49:30.571Z,3.90
2023-12-22T08:51:58.815Z,3.00
2023-12-22T08:54:27.587Z,4.90
2023-12-22T08:56:57.043Z,3.80
2023-12-22T08:59:27.849Z,3.70
2023-12-22T09:02:00.281Z,8.00
2023-12-22T09:04:28.462Z,3.20
2023-12-22T09:06:56.681Z,4.30
2023-12-22T09:09:26.089Z,3.70
2023-12-22T09:11:53.961Z,5.20
2023-12-22T09:14:23.073Z,3.30
2023-12-22T09:16:50.972Z,4.60
2023-12-22T09:19:24.466Z,4.30
2023-12-22T09:21:52.634Z,3.70
2023-12-22T09:24:20.662Z,5.40
2023-12-22T09:26:49.082Z,6.00
2023-12-22T09:29:17.623Z,5.40
2023-12-22T09:31:45.569Z,3.90
2023-12-22T09:34:13.455Z,5.20
2023-12-22T09:36:41.539Z,5.40
2023-12-22T09:39:10.170Z,3.50
2023-12-22T09:41:38.231Z,5.90
2023-12-22T09:44:07.095Z,2.30
2023-12-22T09:46:35.694Z,3.70
2023-12-22T09:49:04.207Z,2.40
2023-12-22T09:51:33.676Z,6.60
2023-12-22T09:54:05.476Z,5.60
2023-12-22T09:56:34.792Z,2.10
2023-12-22T09:59:03.803Z,5.00
2023-12-22T10:01:32.726Z,2.40
2023-12-22T10:04:00.976Z,6.20
2023-12-22T10:06:29.316Z,5.60
2023-12-22T10:08:57.869Z,8.20
2023-12-22T10:11:26.414Z,5.90
2023-12-22T10:13:57.294Z,5.70
2023-12-22T10:16:25.242Z,6.10
2023-12-22T10:18:54.291Z,3.60
2023-12-22T10:21:22.397Z,3.10
2023-12-22T10:23:50.488Z,6.40
2023-12-22T10:26:18.527Z,9.30
2023-12-22T10:28:48.053Z,7.10
2023-12-22T10:31:15.967Z,4.50
2023-12-22T10:33:46.707Z,9.80
2023-12-22T10:36:15.408Z,11.20
2023-12-22T10:38:44.423Z,8.70
2023-12-22T10:41:12.370Z,6.30
2023-12-22T10:43:41.052Z,11.30
2023-12-22T10:46:09.750Z,4.80
2023-12-22T10:48:37.826Z,7.00
2023-12-22T10:51:11.077Z,10.20
2023-12-22T10:53:41.724Z,7.00
2023-12-22T10:56:12.411Z,10.00
2023-12-22T10:58:40.687Z,6.40
2023-12-22T11:01:09.007Z,7.30
2023-12-22T11:03:40.083Z,5.20
2023-12-22T11:06:12.003Z,5.70
2023-12-22T11:08:41.323Z,8.30
2023-12-22T11:11:16.967Z,11.70
2023-12-22T11:13:44.861Z,7.40
2023-12-22T11:16:15.136Z,5.20
2023-12-22T11:18:43.761Z,9.50
2023-12-22T11:21:13.300Z,8.10
2023-12-22T11:23:41.211Z,8.60
2023-12-22T11:26:12.472Z,7.80
2023-12-22T11:28:41.875Z,8.80
2023-12-22T11:31:11.184Z,6.80
2023-12-22T11:33:45.312Z,6.70
2023-12-22T11:36:19.183Z,10.10
2023-12-22T11:38:47.377Z,7.70
2023-12-22T11:41:20.465Z,7.40
2023-12-22T11:43:48.731Z,11.30
2023-12-22T11:46:19.754Z,11.20
2023-12-22T11:48:50.966Z,6.00
2023-12-22T11:51:19.312Z,7.70
2023-12-22T11:53:47.222Z,6.80
2023-12-22T11:56:15.400Z,8.50
2023-12-22T11:58:43.996Z,8.60
2023-12-22T12:01:13.879Z,32.10
2023-12-22T12:03:43.608Z,10.80
2023-12-22T12:06:15.559Z,7.60
2023-12-22T12:08:44.300Z,7.90
2023-12-22T12:11:12.234Z,9.50
2023-12-22T12:13:43.277Z,9.10
2023-12-22T12:16:11.685Z,8.20
2023-12-22T12:18:48.210Z,6.20
2023-12-22T12:21:16.846Z,6.70
2023-12-22T12:23:47.245Z,7.70
2023-12-22T12:26:16.020Z,10.80
2023-12-22T12:28:47.218Z,8.50
2023-12-22T12:31:15.505Z,8.60
2023-12-22T12:33:43.971Z,8.50
2023-12-22T12:36:12.568Z,8.30
2023-12-22T12:38:40.545Z,10.60
2023-12-22T12:41:10.659Z,9.50
2023-12-22T12:43:42.390Z,10.00
2023-12-22T12:46:12.243Z,11.30
2023-12-22T12:48:40.595Z,8.50
2023-12-22T12:51:08.948Z,6.30
2023-12-22T12:53:39.870Z,8.40
2023-12-22T12:56:08.091Z,7.60
2023-12-22T12:58:37.249Z,7.80
2023-12-22T13:01:09.511Z,9.30
2023-12-22T13:03:56.954Z,8.10
2023-12-22T13:06:25.035Z,6.80
2023-12-22T13:08:53.409Z,7.40
2023-12-22T13:11:25.691Z,9.60
2023-12-22T13:13:54.084Z,8.80
2023-12-22T13:16:23.096Z,9.20
2023-12-22T13:18:54.433Z,9.20
2023-12-22T13:21:22.545Z,9.30
2023-12-22T13:24:08.972Z,10.90
2023-12-22T13:26:36.799Z,7.40
2023-12-22T13:29:04.867Z,9.50
2023-12-22T13:31:33.116Z,8.00
2023-12-22T13:34:01.183Z,10.90
2023-12-22T13:36:34.115Z,10.30
2023-12-22T13:39:02.039Z,8.50
2023-12-22T13:41:29.909Z,9.40
2023-12-22T13:43:59.619Z,6.40
2023-12-22T13:46:28.383Z,7.40
2023-12-22T13:48:56.455Z,10.30
2023-12-22T13:51:24.363Z,11.40
2023-12-22T13:53:52.263Z,9.20
2023-12-22T13:56:21.214Z,11.80
2023-12-22T13:58:49.301Z,7.00
2023-12-22T14:01:17.784Z,8.70
2023-12-22T14:03:45.891Z,5.20
2023-12-22T14:06:14.103Z,9.20
2023-12-22T14:08:45.304Z,10.80
2023-12-22T14:11:14.194Z,7.90
2023-12-22T14:13:42.355Z,9.60
2023-12-22T14:16:10.638Z,7.70
2023-12-22T14:18:38.827Z,5.50
2023-12-22T14:21:06.974Z,8.20
2023-12-22T14:23:39.507Z,5.90
2023-12-22T14:26:38.280Z,6.30
2023-12-22T14:29:24.964Z,8.00
2023-12-22T14:31:59.214Z,10.10
2023-12-22T14:34:30.431Z,7.20
2023-12-22T14:36:59.240Z,9.50
2023-12-22T14:39:28.202Z,8.20
2023-12-22T14:42:04.288Z,8.90
2023-12-22T14:44:35.054Z,8.20
2023-12-22T14:47:03.519Z,4.70
2023-12-22T14:49:31.886Z,10.90
2023-12-22T14:52:01.458Z,5.50
2023-12-22T14:54:29.568Z,5.00
2023-12-22T14:56:57.605Z,5.60
2023-12-22T14:59:25.973Z,5.40
2023-12-22T15:01:53.960Z,5.80
2023-12-22T15:04:22.439Z,5.70
2023-12-22T15:07:01.206Z,7.80
2023-12-22T15:09:33.376Z,9.20
2023-12-22T15:12:07.765Z,7.10
2023-12-22T15:14:36.029Z,9.60
2023-12-22T15:17:04.613Z,6.80
2023-12-22T15:19:32.753Z,9.20
2023-12-22T15:22:00.689Z,7.20
2023-12-22T15:24:30.378Z,9.80
2023-12-22T15:26:58.261Z,8.80
2023-12-22T15:29:29.182Z,5.70
2023-12-22T15:32:01.323Z,8.00
2023-12-22T15:34:29.899Z,9.40
2023-12-22T15:37:03.736Z,10.60
2023-12-22T15:39:32.403Z,10.30
2023-12-22T15:42:00.329Z,7.40
2023-12-22T15:44:30.781Z,10.20
2023-12-22T15:46:59.222Z,6.80
2023-12-22T15:49:28.972Z,4.90
2023-12-22T15:51:57.210Z,11.50
2023-12-22T15:54:25.297Z,4.70
2023-12-22T15:56:53.207Z,8.10
2023-12-22T15:59:21.250Z,9.20
2023-12-22T16:01:49.228Z,11.60
2023-12-22T16:04:19.636Z,6.60
2023-12-22T16:06:47.991Z,6.40
2023-12-22T16:09:16.529Z,7.00
2023-12-22T16:11:44.446Z,6.70
2023-12-22T16:14:12.497Z,6.30
2023-12-22T16:16:40.487Z,6.30
2023-12-22T16:19:11.457Z,5.50
2023-12-22T16:21:46.235Z,6.50
2023-12-22T16:24:14.510Z,7.60
2023-12-22T16:26:42.848Z,4.80
2023-12-22T16:29:15.130Z,8.50
2023-12-22T16:31:43.272Z,8.60
2023-12-22T16:34:12.186Z,7.30
2023-12-22T16:36:43.057Z,7.40
2023-12-22T16:39:10.856Z,9.60
2023-12-22T16:41:52.113Z,9.40
2023-12-22T16:44:23.039Z,10.60
2023-12-22T16:46:54.783Z,7.80
2023-12-22T16:49:22.835Z,10.70
2023-12-22T16:51:51.724Z,10.80
2023-12-22T16:54:20.506Z,8.20
2023-12-22T16:56:49.749Z,6.90
2023-12-22T16:59:20.075Z,6.90
2023-12-22T17:01:56.371Z,7.00
2023-12-22T17:04:35.247Z,7.90
2023-12-22T17:07:04.954Z,13.40
2023-12-22T17:09:33.219Z,7.60
2023-12-22T17:12:03.709Z,7.20
2023-12-22T17:14:31.736Z,8.10
2023-12-22T17:17:02.097Z,8.10
2023-12-22T17:19:30.548Z,7.50
2023-12-22T17:21:59.043Z,5.00
2023-12-22T17:24:27.080Z,9.70
2023-12-22T17:26:55.012Z,8.10
2023-12-22T17:29:22.885Z,8.40
2023-12-22T17:31:57.005Z,8.40
2023-12-22T17:34:25.083Z,15.40
2023-12-22T17:36:53.187Z,6.60
2023-12-22T17:39:21.069Z,7.10
2023-12-22T17:41:48.919Z,6.80
2023-12-22T17:44:16.851Z,8.40
2023-12-22T17:46:44.933Z,8.00
2023-12-22T17:49:13.872Z,8.70
2023-12-22T17:51:41.884Z,12.00
2023-12-22T17:54:11.036Z,10.50
2023-12-22T17:56:39.099Z,6.50
2023-12-22T17:59:06.996Z,11.30
2023-12-22T18:01:34.926Z,9.00
2023-12-22T18:04:02.805Z,9.20
2023-12-22T18:06:30.661Z,10.10
2023-12-22T18:08:58.590Z,9.40
2023-12-22T18:11:27.076Z,9.10
2023-12-22T18:13:56.342Z,11.30
2023-12-22T18:16:24.395Z,11.20
2023-12-22T18:18:52.552Z,9.90
2023-12-22T18:21:20.568Z,7.40
2023-12-22T18:23:48.499Z,8.90
2023-12-22T18:26:16.576Z,7.00
2023-12-22T18:28:44.604Z,6.90
2023-12-22T18:31:13.595Z,6.20
2023-12-22T18:33:42.381Z,7.40
2023-12-22T18:36:10.485Z,7.80
2023-12-22T18:38:38.318Z,6.30
2023-12-22T18:41:06.337Z,10.10
2023-12-22T18:43:34.286Z,9.20
2023-12-22T18:46:02.123Z,7.80
2023-12-22T18:48:30.022Z,10.20
2023-12-22T18:50:58.011Z,9.20
2023-12-22T18:53:25.793Z,8.70
2023-12-22T18:55:54.573Z,11.70
2023-12-22T18:58:23.401Z,6.40
2023-12-22T19:00:55.263Z,5.00
2023-12-22T19:03:23.422Z,9.00
2023-12-22T19:05:51.944Z,9.50
2023-12-22T19:08:22.086Z,6.40
2023-12-22T19:10:50.113Z,7.40
2023-12-22T19:13:18.616Z,5.60
2023-12-22T19:15:47.951Z,10.60
2023-12-22T19:18:16.120Z,5.30
2023-12-22T19:20:44.540Z,4.70
2023-12-22T19:23:13.185Z,6.30
2023-12-22T19:25:41.484Z,6.40
2023-12-22T19:28:09.932Z,7.30
2023-12-22T19:30:38.312Z,8.60
2023-12-22T19:33:06.762Z,7.00
2023-12-22T19:35:34.708Z,7.40
2023-12-22T19:38:03.281Z,6.70
2023-12-22T19:40:32.291Z,6.30
2023-12-22T19:43:00.461Z,6.80
2023-12-22T19:45:28.787Z,5.30
2023-12-22T19:47:56.711Z,6.80
2023-12-22T19:50:27.613Z,9.00
2023-12-22T19:52:55.843Z,6.60
2023-12-22T19:55:25.653Z,6.20
2023-12-22T19:57:56.488Z,10.40
2023-12-22T20:00:24.567Z,11.40
2023-12-22T20:02:52.491Z,9.10
2023-12-22T20:05:20.616Z,14.00
2023-12-22T20:07:49.284Z,11.10
2023-12-22T20:10:17.580Z,7.50
2023-12-22T20:12:45.506Z,5.60
2023-12-22T20:15:13.354Z,6.30
2023-12-22T20:17:42.342Z,6.40
2023-12-22T20:20:11.782Z,6.50
2023-12-22T20:22:39.834Z,7.30
2023-12-22T20:25:11.582Z,9.90
2023-12-22T20:27:40.524Z,9.40
2023-12-22T20:30:09.542Z,10.00
2023-12-22T20:32:37.608Z,10.50
2023-12-22T20:35:06.084Z,10.30
2023-12-22T20:37:34.103Z,8.50
2023-12-22T20:40:02.045Z,10.40
2023-12-22T20:42:30.092Z,8.10
2023-12-22T20:44:57.869Z,9.80
2023-12-22T20:47:26.129Z,7.90
2023-12-22T20:49:54.063Z,7.70
2023-12-22T20:52:22.562Z,6.10
2023-12-22T20:54:52.129Z,5.20
2023-12-22T20:57:20.296Z,7.50
2023-12-22T20:59:48.157Z,7.50
2023-12-22T21:02:16.107Z,6.80
2023-12-22T21:04:44.124Z,6.50
2023-12-22T21:07:12.051Z,6.90
2023-12-22T21:09:40.837Z,8.70
2023-12-22T21:12:09.623Z,4.50
2023-12-22T21:14:37.656Z,8.20
2023-12-22T21:17:09.297Z,5.50
2023-12-22T21:19:38.405Z,9.30
2023-12-22T21:22:06.263Z,10.40
2023-12-22T21:24:36.601Z,9.00
2023-12-22T21:27:06.213Z,6.50
2023-12-22T21:29:37.349Z,8.60
2023-12-22T21:32:05.515Z,6.90
2023-12-22T21:34:33.604Z,6.70
2023-12-22T21:37:01.556Z,6.20
2023-12-22T21:39:32.694Z,6.50
2023-12-22T21:42:04.968Z,7.40
2023-12-22T21:44:33.566Z,8.50
2023-12-22T21:47:01.802Z,7.30
2023-12-22T21:49:29.764Z,8.10
2023-12-22T21:51:57.692Z,8.70
2023-12-22T21:54:25.658Z,5.70
2023-12-22T21:56:54.779Z,8.10
2023-12-22T21:59:22.735Z,7.30
2023-12-22T22:01:51.769Z,5.30
2023-12-22T22:04:19.829Z,4.90
2023-12-22T22:06:47.743Z,6.10
2023-12-22T22:09:16.311Z,5.00
2023-12-22T22:11:44.305Z,5.50
2023-12-22T22:14:25.543Z,5.90
2023-12-22T22:16:57.460Z,5.70
2023-12-22T22:19:25.543Z,5.70
2023-12-22T22:21:54.260Z,9.00
2023-12-22T22:24:22.289Z,8.20
2023-12-22T22:26:50.112Z,7.90
2023-12-22T22:29:18.600Z,7.00
2023-12-22T22:31:46.643Z,4.80
2023-12-22T22:34:14.960Z,9.40
2023-12-22T22:36:43.660Z,6.40
2023-12-22T22:39:11.657Z,11.90
2023-12-22T22:41:41.823Z,10.00
2023-12-22T22:44:09.818Z,5.00
2023-12-22T22:46:38.080Z,8.50
2023-12-22T22:49:06.072Z,3.70
2023-12-22T22:51:34.141Z,7.70
2023-12-22T22:54:01.900Z,5.90
2023-12-22T22:56:29.883Z,9.00
2023-12-22T22:58:57.998Z,5.60
2023-12-22T23:01:25.879Z,9.00
2023-12-22T23:04:00.724Z,7.10
2023-12-22T23:06:30.102Z,7.10
2023-12-22T23:09:01.910Z,8.20
2023-12-22T23:11:30.033Z,5.00
2023-12-22T23:13:57.909Z,7.20
2023-12-22T23:16:25.766Z,6.60
2023-12-22T23:18:53.773Z,8.80
2023-12-22T23:21:25.776Z,6.20
2023-12-22T23:23:53.718Z,6.00
2023-12-22T23:26:22.925Z,7.70
2023-12-22T23:28:51.184Z,5.20
2023-12-22T23:31:19.230Z,6.90
2023-12-22T23:33:47.310Z,5.90
2023-12-22T23:36:22.140Z,7.80
2023-12-22T23:38:55.504Z,4.30
2023-12-22T23:41:23.379Z,5.50
2023-12-22T23:43:51.501Z,5.90
2023-12-22T23:46:19.646Z,5.50
2023-12-22T23:48:47.698Z,6.60
2023-12-22T23:51:16.079Z,8.10
2023-12-22T23:53:44.145Z,7.90
2023-12-22T23:56:12.278Z,9.70
2023-12-22T23:58:40.329Z,7.50
